Airport View

Enter AWOS ICAO identifier for current METAR.

ex. KFNL

K42J 211245Z AUTO RMK AO1 TSNO

21 Jul 2018 13:01

Frequency: 124.275

Phone: 352-473-8273

Other Area AWOS: KGNV - K28J - KVQQ - KHEG

TAF KGNV 211120Z 2112/2212 18003KT 1SM BR OVC002 FM211400 26007KT P6SM VCSH SCT025 BKN040